createdAt,value
2019-02-14T00:00:07.187Z,55.99
2019-02-14T00:00:38.407Z,55.23
2019-02-14T00:01:09.662Z,54.88
2019-02-14T00:01:40.884Z,54.16
2019-02-14T00:02:12.362Z,54.29
2019-02-14T00:02:45.566Z,54.37
2019-02-14T00:03:16.774Z,54.57
2019-02-14T00:03:47.992Z,54.71
2019-02-14T00:04:19.217Z,54.91
2019-02-14T00:04:50.504Z,55.00
2019-02-14T00:05:21.708Z,55.18
2019-02-14T00:05:52.945Z,55.33
2019-02-14T00:06:24.148Z,55.43
2019-02-14T00:06:57.369Z,55.55
2019-02-14T00:07:28.770Z,55.59
2019-02-14T00:07:59.973Z,55.54
2019-02-14T00:08:31.230Z,55.67
2019-02-14T00:09:02.442Z,55.61
2019-02-14T00:09:33.752Z,55.67
2019-02-14T00:10:04.962Z,55.74
2019-02-14T00:10:36.211Z,55.80
2019-02-14T00:11:07.420Z,55.95
2019-02-14T00:11:38.645Z,55.78
2019-02-14T00:12:10.926Z,55.80
2019-02-14T00:12:42.136Z,55.92
2019-02-14T00:13:14.284Z,55.83
2019-02-14T00:13:45.551Z,55.82
2019-02-14T00:14:16.753Z,55.95
2019-02-14T00:14:47.988Z,56.18
2019-02-14T00:15:19.186Z,55.99
2019-02-14T00:15:50.432Z,57.03
2019-02-14T00:16:21.634Z,56.57
2019-02-14T00:16:52.926Z,56.17
2019-02-14T00:17:24.138Z,56.13
2019-02-14T00:17:56.503Z,56.13
2019-02-14T00:18:27.761Z,56.20
2019-02-14T00:18:58.975Z,56.27
2019-02-14T00:19:30.183Z,56.22
2019-02-14T00:20:01.448Z,56.25
2019-02-14T00:20:32.675Z,56.35
2019-02-14T00:21:03.951Z,56.39
2019-02-14T00:21:35.201Z,56.35
2019-02-14T00:22:08.535Z,56.28
2019-02-14T00:22:39.797Z,56.31
2019-02-14T00:23:10.990Z,56.45
2019-02-14T00:23:42.238Z,56.44
2019-02-14T00:24:13.535Z,56.29
2019-02-14T00:24:44.755Z,56.25
2019-02-14T00:25:15.990Z,56.29
2019-02-14T00:25:47.190Z,56.28
2019-02-14T00:26:18.416Z,56.30
2019-02-14T00:26:49.646Z,56.29
2019-02-14T00:27:20.944Z,56.27
2019-02-14T00:27:52.179Z,56.32
2019-02-14T00:28:23.391Z,56.40
2019-02-14T00:28:57.135Z,56.43
2019-02-14T00:29:28.362Z,56.39
2019-02-14T00:30:01.580Z,56.44
2019-02-14T00:30:32.835Z,56.52
2019-02-14T00:31:04.067Z,56.54
2019-02-14T00:31:35.283Z,56.48
2019-02-14T00:32:06.507Z,56.52
2019-02-14T00:32:37.752Z,56.49
2019-02-14T00:33:08.979Z,56.50
2019-02-14T00:33:40.194Z,56.56
2019-02-14T00:34:11.464Z,56.45
2019-02-14T00:34:42.669Z,56.48
2019-02-14T00:35:14.957Z,56.52
2019-02-14T00:35:46.151Z,56.48
2019-02-14T00:36:17.367Z,56.55
2019-02-14T00:36:48.600Z,56.43
2019-02-14T00:37:19.802Z,56.49
2019-02-14T00:37:51.933Z,56.52
2019-02-14T00:38:23.157Z,56.51
2019-02-14T00:38:54.406Z,56.51
2019-02-14T00:39:25.629Z,56.43
2019-02-14T00:39:56.845Z,56.42
2019-02-14T00:40:28.048Z,56.42
2019-02-14T00:40:59.250Z,56.31
2019-02-14T00:41:30.457Z,56.14
2019-02-14T00:42:01.677Z,56.12
2019-02-14T00:42:32.871Z,56.10
2019-02-14T00:43:06.119Z,56.15
2019-02-14T00:43:37.353Z,55.99
2019-02-14T00:44:08.573Z,55.90
2019-02-14T00:44:40.157Z,55.90
2019-02-14T00:45:11.391Z,55.86
2019-02-14T00:45:42.608Z,55.90
2019-02-14T00:46:13.805Z,55.85
2019-02-14T00:46:45.036Z,55.86
2019-02-14T00:47:17.321Z,55.92
2019-02-14T00:47:50.568Z,55.89
2019-02-14T00:48:21.783Z,55.55
2019-02-14T00:48:53.006Z,55.43
2019-02-14T00:49:24.233Z,55.40
2019-02-14T00:49:55.458Z,55.54
2019-02-14T00:50:26.684Z,55.16
2019-02-14T00:50:57.920Z,55.10
2019-02-14T00:51:29.170Z,55.12
2019-02-14T00:52:00.367Z,55.36
2019-02-14T00:52:31.589Z,55.42
2019-02-14T00:53:02.812Z,55.35
2019-02-14T00:53:34.056Z,55.40
2019-02-14T00:54:05.273Z,55.45
2019-02-14T00:54:36.516Z,55.56
2019-02-14T00:55:07.723Z,55.43
2019-02-14T00:55:40.011Z,55.37
2019-02-14T00:56:11.261Z,55.50
2019-02-14T00:56:42.484Z,55.50
2019-02-14T00:57:14.645Z,55.48
2019-02-14T00:57:45.896Z,55.64
2019-02-14T00:58:17.126Z,55.46
2019-02-14T00:58:48.390Z,55.36
2019-02-14T00:59:28.894Z,55.28
2019-02-14T01:00:00.165Z,55.55
2019-02-14T01:00:31.503Z,55.54
2019-02-14T01:01:02.713Z,55.48
2019-02-14T01:01:33.920Z,55.61
2019-02-14T01:02:05.098Z,55.58
2019-02-14T01:02:36.281Z,55.47
2019-02-14T01:03:07.476Z,55.66
2019-02-14T01:03:38.666Z,55.59
2019-02-14T01:04:10.329Z,55.64
2019-02-14T01:04:41.523Z,55.67
2019-02-14T01:05:13.733Z,55.83
2019-02-14T01:05:47.733Z,55.80
2019-02-14T01:06:18.947Z,55.87
2019-02-14T01:06:50.172Z,56.02
2019-02-14T01:07:21.388Z,55.70
2019-02-14T01:07:52.592Z,55.80
2019-02-14T01:08:25.841Z,55.76
2019-02-14T01:08:57.120Z,55.97
2019-02-14T01:09:28.376Z,56.02
2019-02-14T01:10:06.811Z,56.17
2019-02-14T01:10:38.024Z,56.19
2019-02-14T01:11:09.267Z,56.14
2019-02-14T01:11:40.671Z,56.28
2019-02-14T01:12:12.061Z,56.21
2019-02-14T01:12:43.397Z,56.16
2019-02-14T01:13:14.594Z,56.40
2019-02-14T01:13:45.844Z,56.25
2019-02-14T01:14:17.125Z,56.23
2019-02-14T01:14:48.385Z,56.16
2019-02-14T01:15:19.616Z,56.17
2019-02-14T01:15:51.927Z,56.25
2019-02-14T01:16:23.154Z,56.14
2019-02-14T01:16:57.304Z,56.19
2019-02-14T01:17:28.512Z,56.13
2019-02-14T01:17:59.751Z,56.20
2019-02-14T01:18:30.996Z,56.08
2019-02-14T01:19:02.232Z,56.08
2019-02-14T01:19:33.504Z,56.02
2019-02-14T01:20:04.711Z,55.81
2019-02-14T01:20:35.986Z,55.81
2019-02-14T01:21:09.421Z,55.81
2019-02-14T01:21:40.670Z,55.89
2019-02-14T01:22:11.890Z,55.80
2019-02-14T01:22:44.148Z,55.86
2019-02-14T01:23:15.372Z,55.82
2019-02-14T01:23:46.639Z,55.95
2019-02-14T01:24:17.928Z,56.03
2019-02-14T01:24:49.157Z,55.99
2019-02-14T01:25:20.400Z,56.07
2019-02-14T01:25:52.734Z,56.21
2019-02-14T01:26:23.935Z,56.22
2019-02-14T01:26:55.161Z,56.99
2019-02-14T01:27:26.467Z,56.44
2019-02-14T01:27:57.717Z,56.37
2019-02-14T01:28:28.928Z,56.67
2019-02-14T01:29:00.177Z,56.54
2019-02-14T01:29:31.371Z,56.54
2019-02-14T01:30:02.592Z,56.67
2019-02-14T01:30:33.811Z,56.73
2019-02-14T01:31:05.064Z,56.84
2019-02-14T01:31:36.267Z,56.79
2019-02-14T01:32:07.483Z,56.89
2019-02-14T01:32:39.783Z,56.90
2019-02-14T01:33:11.020Z,56.92
2019-02-14T01:33:42.269Z,56.90
2019-02-14T01:34:13.509Z,56.88
2019-02-14T01:34:44.738Z,56.86
2019-02-14T01:35:16.006Z,56.85
2019-02-14T01:35:48.291Z,56.96
2019-02-14T01:36:20.532Z,57.12
2019-02-14T01:36:51.766Z,56.89
2019-02-14T01:37:23.057Z,56.88
2019-02-14T01:37:55.316Z,56.91
2019-02-14T01:38:27.624Z,56.83
2019-02-14T01:38:58.829Z,56.71
2019-02-14T01:39:31.077Z,56.73
2019-02-14T01:40:02.362Z,56.51
2019-02-14T01:40:33.606Z,56.53
2019-02-14T01:41:05.954Z,56.55
2019-02-14T01:41:38.276Z,56.63
2019-02-14T01:42:12.413Z,56.62
2019-02-14T01:42:43.672Z,56.57
2019-02-14T01:43:16.894Z,56.56
2019-02-14T01:43:48.112Z,56.53
2019-02-14T01:44:19.315Z,56.54
2019-02-14T01:44:53.261Z,56.50
2019-02-14T01:45:24.480Z,56.40
2019-02-14T01:45:55.666Z,56.33
2019-02-14T01:46:26.855Z,56.27
2019-02-14T01:46:58.021Z,56.26
2019-02-14T01:47:33.837Z,56.21
2019-02-14T01:48:05.014Z,56.22
2019-02-14T01:48:36.197Z,56.13
2019-02-14T01:49:07.377Z,56.24
2019-02-14T01:49:38.542Z,56.18
2019-02-14T01:50:09.798Z,56.21
2019-02-14T01:50:41.081Z,56.23
2019-02-14T01:51:14.541Z,56.17
2019-02-14T01:51:45.758Z,56.00
2019-02-14T01:52:16.979Z,56.15
2019-02-14T01:52:48.189Z,56.16
2019-02-14T01:53:19.442Z,56.17
2019-02-14T01:53:50.667Z,55.92
2019-02-14T01:54:30.925Z,55.84
2019-02-14T01:55:03.208Z,55.82
2019-02-14T01:55:36.376Z,55.72
2019-02-14T01:56:07.542Z,55.78
2019-02-14T01:56:38.747Z,55.25
2019-02-14T01:57:09.948Z,55.22
2019-02-14T01:57:41.131Z,55.09
2019-02-14T01:58:12.315Z,55.12
2019-02-14T01:58:43.539Z,55.03
2019-02-14T01:59:14.773Z,54.90
2019-02-14T01:59:45.999Z,54.74
2019-02-14T02:00:17.217Z,54.66
2019-02-14T02:00:48.861Z,54.76
2019-02-14T02:01:20.073Z,54.62
2019-02-14T02:01:51.317Z,54.51
2019-02-14T02:02:22.538Z,54.33
2019-02-14T02:02:53.749Z,54.29
2019-02-14T02:03:24.944Z,54.21
2019-02-14T02:03:56.199Z,54.28
2019-02-14T02:04:29.494Z,54.38
2019-02-14T02:05:00.729Z,54.36
2019-02-14T02:05:31.944Z,54.17
2019-02-14T02:06:03.178Z,54.21
2019-02-14T02:06:34.398Z,54.13
2019-02-14T02:07:05.657Z,53.91
2019-02-14T02:07:36.890Z,53.92
2019-02-14T02:08:09.061Z,54.00
2019-02-14T02:08:40.313Z,54.16
2019-02-14T02:09:11.525Z,54.00
2019-02-14T02:09:42.758Z,53.77
2019-02-14T02:10:13.983Z,53.75
2019-02-14T02:10:46.233Z,53.79
2019-02-14T02:11:17.481Z,53.66
2019-02-14T02:11:48.706Z,53.64
2019-02-14T02:12:19.982Z,53.73
2019-02-14T02:12:52.313Z,53.43
2019-02-14T02:13:23.569Z,53.59
2019-02-14T02:13:54.786Z,53.57
2019-02-14T02:14:26.000Z,53.60
2019-02-14T02:14:57.203Z,53.57
2019-02-14T02:15:28.405Z,53.71
2019-02-14T02:15:59.641Z,53.68
2019-02-14T02:16:32.047Z,53.63
2019-02-14T02:17:03.571Z,53.58
2019-02-14T02:17:35.874Z,53.71
2019-02-14T02:18:08.242Z,53.57
2019-02-14T02:18:40.551Z,53.56
2019-02-14T02:19:11.766Z,53.44
2019-02-14T02:19:43.002Z,53.53
2019-02-14T02:20:14.235Z,53.41
2019-02-14T02:20:45.448Z,53.30
2019-02-14T02:21:16.657Z,53.23
2019-02-14T02:21:47.869Z,53.28
2019-02-14T02:22:19.138Z,53.39
2019-02-14T02:22:50.377Z,53.34
2019-02-14T02:23:21.603Z,53.43
2019-02-14T02:23:52.826Z,53.19
2019-02-14T02:24:24.094Z,53.24
2019-02-14T02:24:59.621Z,53.25
2019-02-14T02:25:33.063Z,53.33
2019-02-14T02:26:05.431Z,53.42
2019-02-14T02:26:36.735Z,53.89
2019-02-14T02:27:07.986Z,53.44
2019-02-14T02:27:39.223Z,53.38
2019-02-14T02:28:13.040Z,53.24
2019-02-14T02:28:44.244Z,53.43
2019-02-14T02:29:15.460Z,53.45
2019-02-14T02:29:46.655Z,53.51
2019-02-14T02:30:17.875Z,53.42
2019-02-14T02:30:49.126Z,53.42
2019-02-14T02:31:21.460Z,53.48
2019-02-14T02:31:52.685Z,54.22
2019-02-14T02:32:23.900Z,53.51
2019-02-14T02:32:55.110Z,53.30
2019-02-14T02:33:26.330Z,53.36
2019-02-14T02:33:57.564Z,53.46
2019-02-14T02:34:30.795Z,53.43
2019-02-14T02:35:02.011Z,53.40
2019-02-14T02:35:33.266Z,53.56
2019-02-14T02:36:06.985Z,53.60
2019-02-14T02:36:38.155Z,53.40
2019-02-14T02:37:10.395Z,53.59
2019-02-14T02:37:41.984Z,53.66
2019-02-14T02:38:13.260Z,53.46
2019-02-14T02:38:44.462Z,53.68
2019-02-14T02:39:15.723Z,53.30
2019-02-14T02:39:46.922Z,53.35
2019-02-14T02:40:18.157Z,53.54
2019-02-14T02:40:49.353Z,53.40
2019-02-14T02:41:20.564Z,53.52
2019-02-14T02:41:51.817Z,53.61
2019-02-14T02:42:23.107Z,53.59
2019-02-14T02:42:54.329Z,53.62
2019-02-14T02:43:25.569Z,53.28
2019-02-14T02:43:56.780Z,53.12
2019-02-14T02:44:30.024Z,53.41
2019-02-14T02:45:01.216Z,53.54
2019-02-14T02:45:32.415Z,53.41
2019-02-14T02:46:03.644Z,53.43
2019-02-14T02:46:37.883Z,53.27
2019-02-14T02:47:09.176Z,53.71
2019-02-14T02:47:40.450Z,53.58
2019-02-14T02:48:13.883Z,53.44
2019-02-14T02:48:46.260Z,53.38
2019-02-14T02:49:17.517Z,53.44
2019-02-14T02:49:48.717Z,53.30
2019-02-14T02:50:19.941Z,53.41
2019-02-14T02:50:51.185Z,53.57
2019-02-14T02:51:24.699Z,53.28
2019-02-14T02:51:55.913Z,53.36
2019-02-14T02:52:27.311Z,53.34
2019-02-14T02:52:58.527Z,53.10
2019-02-14T02:53:29.751Z,53.23
2019-02-14T02:54:00.980Z,53.18
2019-02-14T02:54:32.205Z,53.05
2019-02-14T02:55:03.410Z,53.03
2019-02-14T02:55:34.637Z,53.26
2019-02-14T02:56:07.901Z,53.05
2019-02-14T02:56:39.210Z,52.85
2019-02-14T02:57:10.375Z,52.59
2019-02-14T02:57:41.588Z,52.62
2019-02-14T02:58:12.866Z,52.47
2019-02-14T02:58:44.079Z,52.55
2019-02-14T02:59:15.284Z,52.50
2019-02-14T02:59:47.613Z,52.52
2019-02-14T03:00:18.857Z,52.53
2019-02-14T03:00:51.160Z,52.50
2019-02-14T03:01:22.396Z,52.46
2019-02-14T03:01:53.665Z,52.29
2019-02-14T03:02:24.859Z,52.21
2019-02-14T03:02:57.130Z,52.07
2019-02-14T03:03:28.392Z,52.12
2019-02-14T03:03:59.612Z,51.88
2019-02-14T03:04:30.860Z,51.99
2019-02-14T03:05:02.086Z,51.66
2019-02-14T03:05:35.269Z,51.77
2019-02-14T03:06:10.674Z,51.66
2019-02-14T03:06:40.515Z,51.55
2019-02-14T03:07:12.103Z,51.66
2019-02-14T03:07:43.355Z,51.53
2019-02-14T03:08:14.574Z,51.64
2019-02-14T03:08:45.824Z,51.66
2019-02-14T03:09:17.046Z,51.61
2019-02-14T03:09:50.315Z,51.57
2019-02-14T03:10:21.526Z,51.49
2019-02-14T03:10:54.144Z,51.41
2019-02-14T03:11:26.640Z,51.23
2019-02-14T03:11:57.831Z,51.30
2019-02-14T03:12:29.066Z,51.38
2019-02-14T03:13:00.357Z,51.22
2019-02-14T03:13:31.665Z,51.24
2019-02-14T03:14:02.926Z,51.26
2019-02-14T03:14:34.225Z,51.06
2019-02-14T03:15:07.446Z,51.09
2019-02-14T03:15:38.671Z,51.13
2019-02-14T03:16:09.896Z,51.11
2019-02-14T03:16:41.098Z,50.94
2019-02-14T03:17:14.560Z,51.06
2019-02-14T03:17:45.782Z,51.00
2019-02-14T03:18:16.992Z,51.03
2019-02-14T03:18:48.264Z,51.15
2019-02-14T03:19:19.466Z,51.16
2019-02-14T03:19:50.683Z,51.11
2019-02-14T03:20:22.972Z,50.80
2019-02-14T03:20:56.185Z,50.92
2019-02-14T03:21:27.412Z,50.73
2019-02-14T03:21:58.624Z,50.80
2019-02-14T03:22:29.852Z,50.87
2019-02-14T03:23:01.057Z,50.59
2019-02-14T03:23:32.275Z,50.58
2019-02-14T03:24:03.500Z,50.44
2019-02-14T03:24:34.717Z,50.44
2019-02-14T03:25:05.954Z,50.54
2019-02-14T03:25:37.244Z,50.33
2019-02-14T03:26:08.494Z,50.19
2019-02-14T03:26:39.696Z,50.39
2019-02-14T03:27:10.916Z,50.40
2019-02-14T03:27:42.128Z,50.47
2019-02-14T03:28:13.383Z,50.24
2019-02-14T03:28:44.607Z,49.99
2019-02-14T03:29:15.868Z,49.99
2019-02-14T03:29:47.119Z,50.04
2019-02-14T03:30:20.378Z,50.14
2019-02-14T03:30:52.664Z,50.44
2019-02-14T03:31:23.878Z,50.33
2019-02-14T03:31:55.164Z,50.20
2019-02-14T03:32:26.380Z,50.17
2019-02-14T03:32:57.597Z,50.12
2019-02-14T03:33:28.812Z,50.06
2019-02-14T03:34:00.056Z,49.99
2019-02-14T03:34:31.309Z,50.08
2019-02-14T03:35:02.530Z,50.06
2019-02-14T03:35:33.740Z,50.20
2019-02-14T03:36:04.969Z,50.16
2019-02-14T03:36:37.286Z,50.09
2019-02-14T03:37:08.493Z,50.04
2019-02-14T03:37:39.772Z,50.13
2019-02-14T03:38:10.998Z,50.07
2019-02-14T03:38:43.266Z,50.17
2019-02-14T03:39:14.493Z,50.12
2019-02-14T03:39:45.690Z,49.99
2019-02-14T03:40:16.967Z,49.98
2019-02-14T03:40:48.187Z,49.90
2019-02-14T03:41:19.414Z,49.84
2019-02-14T03:41:50.627Z,49.86
2019-02-14T03:42:24.211Z,49.79
2019-02-14T03:42:55.432Z,49.69
2019-02-14T03:43:27.744Z,49.51
2019-02-14T03:43:58.954Z,49.31
2019-02-14T03:44:30.164Z,49.29
2019-02-14T03:45:01.442Z,49.33
2019-02-14T03:45:32.663Z,49.32
2019-02-14T03:46:03.887Z,49.24
2019-02-14T03:46:35.129Z,49.60
2019-02-14T03:47:06.338Z,49.25
2019-02-14T03:47:38.568Z,49.41
2019-02-14T03:48:09.779Z,49.28
2019-02-14T03:48:41.324Z,49.88
2019-02-14T03:49:12.531Z,49.06
2019-02-14T03:49:43.729Z,48.71
2019-02-14T03:50:15.004Z,48.57
2019-02-14T03:50:46.213Z,48.64
2019-02-14T03:51:17.461Z,48.76
2019-02-14T03:51:48.669Z,48.93
2019-02-14T03:52:21.897Z,48.85
2019-02-14T03:52:53.112Z,48.65
2019-02-14T03:53:24.320Z,48.73
2019-02-14T03:53:56.581Z,48.58
2019-02-14T03:54:27.831Z,48.77
2019-02-14T03:54:59.094Z,48.80
2019-02-14T03:55:30.293Z,48.76
2019-02-14T03:56:01.541Z,48.63
2019-02-14T03:56:32.782Z,48.75
2019-02-14T03:57:03.983Z,48.78
2019-02-14T03:57:35.224Z,48.74
2019-02-14T03:58:06.415Z,48.74
2019-02-14T03:58:37.640Z,48.69
2019-02-14T03:59:08.854Z,48.75
2019-02-14T03:59:40.078Z,48.67
2019-02-14T04:00:11.366Z,48.67
2019-02-14T04:00:42.594Z,48.38
2019-02-14T04:01:14.872Z,48.47
2019-02-14T04:01:46.076Z,48.61
2019-02-14T04:02:17.322Z,48.65
2019-02-14T04:02:48.917Z,48.57
2019-02-14T04:03:22.168Z,48.61
2019-02-14T04:03:53.401Z,48.56
2019-02-14T04:04:24.702Z,48.68
2019-02-14T04:04:57.047Z,48.60
2019-02-14T04:05:28.301Z,48.56
2019-02-14T04:05:59.539Z,48.52
2019-02-14T04:06:30.766Z,48.31
2019-02-14T04:07:01.979Z,48.47
2019-02-14T04:07:35.451Z,48.37
2019-02-14T04:08:06.652Z,48.33
2019-02-14T04:08:40.368Z,48.35
2019-02-14T04:09:11.572Z,48.42
2019-02-14T04:09:42.809Z,48.30
2019-02-14T04:10:14.024Z,48.30
2019-02-14T04:10:45.228Z,48.29
2019-02-14T04:11:16.427Z,48.36
2019-02-14T04:11:48.777Z,48.43
2019-02-14T04:12:19.995Z,48.79
2019-02-14T04:12:51.532Z,48.51
2019-02-14T04:13:22.743Z,48.36
2019-02-14T04:13:53.968Z,48.38
2019-02-14T04:14:26.245Z,48.37
2019-02-14T04:14:57.539Z,48.87
2019-02-14T04:15:28.768Z,48.50
2019-02-14T04:16:00.072Z,48.52
2019-02-14T04:16:31.280Z,48.53
2019-02-14T04:17:02.505Z,48.63
2019-02-14T04:17:33.746Z,48.27
2019-02-14T04:18:04.971Z,48.25
2019-02-14T04:18:36.194Z,49.06
2019-02-14T04:19:07.456Z,48.73
2019-02-14T04:19:38.669Z,48.47
2019-02-14T04:20:09.882Z,48.80
2019-02-14T04:20:42.103Z,48.52
2019-02-14T04:21:14.451Z,48.26
2019-02-14T04:21:45.696Z,48.29
2019-02-14T04:22:16.903Z,49.15
2019-02-14T04:22:48.119Z,48.84
2019-02-14T04:23:21.351Z,48.65
2019-02-14T04:23:52.554Z,48.50
2019-02-14T04:24:23.773Z,48.62
2019-02-14T04:24:57.253Z,49.79
2019-02-14T04:25:28.547Z,48.84
2019-02-14T04:25:59.761Z,50.52
2019-02-14T04:26:30.968Z,49.40
2019-02-14T04:27:02.180Z,49.11
2019-02-14T04:27:33.389Z,48.15
2019-02-14T04:28:04.625Z,48.08
2019-02-14T04:28:36.916Z,48.29
2019-02-14T04:29:08.121Z,48.42
2019-02-14T04:29:39.326Z,48.75
2019-02-14T04:30:10.549Z,48.51
2019-02-14T04:30:41.904Z,48.31
2019-02-14T04:31:13.111Z,49.32
2019-02-14T04:31:44.648Z,48.47
2019-02-14T04:32:15.888Z,48.34
2019-02-14T04:32:47.121Z,48.31
2019-02-14T04:33:18.357Z,48.39
2019-02-14T04:33:49.619Z,48.47
2019-02-14T04:34:20.857Z,48.55
2019-02-14T04:34:52.060Z,49.02
2019-02-14T04:35:23.322Z,48.63
2019-02-14T04:35:54.529Z,48.62
2019-02-14T04:36:25.753Z,48.73
2019-02-14T04:36:56.986Z,48.81
2019-02-14T04:37:28.189Z,48.72
2019-02-14T04:37:59.414Z,48.77
2019-02-14T04:38:31.667Z,48.94
2019-02-14T04:39:02.862Z,49.44
2019-02-14T04:39:34.125Z,49.19
2019-02-14T04:40:05.327Z,48.50
2019-02-14T04:40:36.553Z,48.52
2019-02-14T04:41:07.760Z,48.61
2019-02-14T04:41:38.986Z,48.82
2019-02-14T04:42:11.208Z,48.77
2019-02-14T04:42:42.453Z,48.92
2019-02-14T04:43:14.731Z,49.04
2019-02-14T04:43:48.244Z,49.12
2019-02-14T04:44:20.549Z,49.20
2019-02-14T04:44:51.775Z,49.07
2019-02-14T04:45:22.987Z,49.34
2019-02-14T04:45:54.203Z,49.31
2019-02-14T04:46:25.413Z,49.62
2019-02-14T04:46:56.637Z,49.42
2019-02-14T04:47:27.884Z,49.46
2019-02-14T04:48:01.264Z,49.63
2019-02-14T04:48:32.795Z,49.39
2019-02-14T04:49:04.006Z,49.35
2019-02-14T04:49:35.256Z,49.43
2019-02-14T04:50:06.465Z,49.27
2019-02-14T04:50:37.695Z,49.30
2019-02-14T04:51:08.983Z,49.77
2019-02-14T04:51:40.988Z,49.42
2019-02-14T04:52:13.335Z,49.50
2019-02-14T04:52:44.547Z,49.43
2019-02-14T04:53:15.786Z,49.43
2019-02-14T04:53:49.208Z,49.53
2019-02-14T04:54:20.408Z,49.47
2019-02-14T04:54:53.892Z,49.78
2019-02-14T04:55:25.092Z,49.47
2019-02-14T04:55:56.288Z,49.48
2019-02-14T04:56:27.506Z,49.37
2019-02-14T04:57:01.015Z,49.41
2019-02-14T04:57:32.232Z,49.41
2019-02-14T04:58:04.551Z,49.49
2019-02-14T04:58:35.806Z,49.63
2019-02-14T04:59:07.037Z,49.62
2019-02-14T04:59:38.243Z,49.88
2019-02-14T05:00:09.473Z,49.77
2019-02-14T05:00:40.671Z,49.87
2019-02-14T05:01:11.892Z,49.85
2019-02-14T05:01:43.150Z,49.94
2019-02-14T05:02:14.365Z,50.03
2019-02-14T05:02:45.624Z,50.13
2019-02-14T05:03:16.871Z,50.25
2019-02-14T05:03:48.110Z,50.26
2019-02-14T05:04:20.420Z,50.24
2019-02-14T05:04:52.725Z,50.32
2019-02-14T05:05:26.239Z,50.33
2019-02-14T05:05:58.527Z,50.45
2019-02-14T05:06:29.819Z,50.42
2019-02-14T05:07:02.103Z,50.84
2019-02-14T05:07:33.318Z,50.40
2019-02-14T05:08:04.578Z,50.30
2019-02-14T05:08:35.805Z,50.81
2019-02-14T05:09:07.022Z,50.55
2019-02-14T05:09:38.236Z,50.47
2019-02-14T05:10:09.447Z,50.49
2019-02-14T05:10:41.797Z,50.57
2019-02-14T05:11:13.073Z,50.67
2019-02-14T05:11:44.299Z,50.80
2019-02-14T05:12:15.509Z,50.75
2019-02-14T05:12:47.772Z,51.07
2019-02-14T05:13:19.021Z,50.90
2019-02-14T05:13:50.250Z,51.06
2019-02-14T05:14:22.532Z,51.14
2019-02-14T05:14:54.866Z,51.23
2019-02-14T05:15:26.093Z,51.62
2019-02-14T05:15:57.338Z,52.19
2019-02-14T05:16:28.538Z,51.59
2019-02-14T05:16:59.776Z,51.59
2019-02-14T05:17:31.050Z,53.32
2019-02-14T05:18:02.281Z,51.36
2019-02-14T05:18:33.521Z,52.86
2019-02-14T05:19:07.006Z,51.62
2019-02-14T05:19:38.216Z,50.32
2019-02-14T05:20:09.751Z,50.45
2019-02-14T05:20:40.982Z,50.43
2019-02-14T05:21:12.187Z,50.55
2019-02-14T05:21:43.409Z,50.64
2019-02-14T05:22:16.908Z,50.51
2019-02-14T05:22:48.111Z,50.67
2019-02-14T05:23:19.339Z,50.50
2019-02-14T05:23:50.598Z,50.51
2019-02-14T05:24:21.853Z,50.60
2019-02-14T05:24:53.041Z,50.66
2019-02-14T05:25:26.535Z,50.86
2019-02-14T05:25:57.745Z,50.81
2019-02-14T05:26:31.451Z,49.92
2019-02-14T05:27:02.655Z,50.09
2019-02-14T05:27:35.960Z,50.28
2019-02-14T05:28:07.171Z,50.43
2019-02-14T05:28:38.388Z,50.16
2019-02-14T05:29:10.673Z,50.24
2019-02-14T05:29:41.887Z,50.02
2019-02-14T05:30:13.154Z,49.75
2019-02-14T05:30:44.379Z,49.97
2019-02-14T05:31:15.617Z,49.66
2019-02-14T05:31:46.817Z,49.88
2019-02-14T05:32:18.018Z,49.79
2019-02-14T05:32:50.638Z,49.91
2019-02-14T05:33:21.860Z,49.81
2019-02-14T05:33:54.136Z,49.79
2019-02-14T05:34:26.409Z,49.76
2019-02-14T05:34:57.675Z,49.45
2019-02-14T05:35:29.954Z,49.21
2019-02-14T05:36:01.169Z,48.80
2019-02-14T05:36:32.372Z,48.85
2019-02-14T05:37:03.624Z,48.73
2019-02-14T05:37:34.826Z,48.50
2019-02-14T05:38:06.037Z,50.39
2019-02-14T05:38:37.235Z,47.95
2019-02-14T05:39:10.711Z,47.62
2019-02-14T05:39:42.987Z,47.31
2019-02-14T05:40:14.212Z,47.13
2019-02-14T05:40:45.462Z,46.86
2019-02-14T05:41:16.680Z,46.89
2019-02-14T05:41:47.890Z,46.71
2019-02-14T05:42:21.094Z,47.53
2019-02-14T05:42:52.294Z,47.20
2019-02-14T05:43:23.505Z,46.93
2019-02-14T05:43:54.732Z,47.20
2019-02-14T05:44:25.950Z,46.63
2019-02-14T05:44:57.165Z,46.99
2019-02-14T05:45:29.487Z,46.50
2019-02-14T05:46:00.724Z,46.30
2019-02-14T05:46:31.938Z,46.28
2019-02-14T05:47:03.152Z,46.33
2019-02-14T05:47:34.367Z,47.02
2019-02-14T05:48:05.578Z,46.14
2019-02-14T05:48:36.799Z,45.87
2019-02-14T05:49:08.068Z,45.70
2019-02-14T05:49:39.315Z,45.63
2019-02-14T05:50:10.521Z,45.75
2019-02-14T05:50:41.745Z,46.24
2019-02-14T05:51:12.974Z,45.79
2019-02-14T05:51:44.205Z,45.85
2019-02-14T05:52:15.402Z,46.16
2019-02-14T05:52:46.680Z,46.22
2019-02-14T05:53:17.870Z,46.18
2019-02-14T05:53:49.132Z,46.42
2019-02-14T05:54:20.378Z,46.92
2019-02-14T05:54:52.639Z,46.78
2019-02-14T05:55:23.840Z,46.27
2019-02-14T05:55:55.055Z,46.48
2019-02-14T05:56:26.288Z,46.46
2019-02-14T05:56:57.500Z,47.07
2019-02-14T05:57:28.711Z,46.38
2019-02-14T05:57:59.929Z,46.22
2019-02-14T05:58:31.187Z,46.53
2019-02-14T05:59:02.414Z,46.17
2019-02-14T05:59:33.899Z,46.12
2019-02-14T06:00:05.184Z,46.09
2019-02-14T06:00:36.391Z,46.12
2019-02-14T06:01:07.609Z,46.14
2019-02-14T06:01:38.823Z,46.48
2019-02-14T06:02:10.029Z,46.20
2019-02-14T06:02:42.354Z,46.29
2019-02-14T06:03:13.588Z,46.41
2019-02-14T06:03:44.854Z,46.49
2019-02-14T06:04:16.081Z,46.62
2019-02-14T06:04:47.374Z,46.49
2019-02-14T06:05:18.630Z,46.43
2019-02-14T06:05:49.847Z,46.48
2019-02-14T06:06:21.058Z,46.40
2019-02-14T06:06:52.317Z,46.41
2019-02-14T06:07:23.502Z,46.62
2019-02-14T06:07:54.711Z,46.76
2019-02-14T06:08:25.945Z,46.80
2019-02-14T06:08:58.208Z,46.23
2019-02-14T06:09:29.469Z,46.50
2019-02-14T06:10:00.707Z,46.06
2019-02-14T06:10:31.986Z,46.10
2019-02-14T06:11:03.206Z,45.71
2019-02-14T06:11:34.427Z,45.92
2019-02-14T06:12:06.711Z,45.78
2019-02-14T06:12:38.074Z,45.69
2019-02-14T06:13:09.291Z,45.72
2019-02-14T06:13:40.538Z,45.65
2019-02-14T06:14:11.782Z,45.68
2019-02-14T06:14:42.971Z,45.82
2019-02-14T06:15:14.198Z,45.76
2019-02-14T06:15:45.465Z,46.08
2019-02-14T06:16:16.689Z,47.47
2019-02-14T06:16:48.959Z,45.99
2019-02-14T06:17:20.227Z,45.76
2019-02-14T06:17:51.465Z,46.11
2019-02-14T06:18:22.710Z,45.74
2019-02-14T06:18:53.909Z,45.93
2019-02-14T06:19:25.137Z,46.34
2019-02-14T06:19:56.368Z,46.04
2019-02-14T06:20:27.614Z,46.00
2019-02-14T06:20:58.896Z,46.14
2019-02-14T06:21:30.113Z,46.60
2019-02-14T06:22:01.331Z,46.57
2019-02-14T06:22:32.562Z,47.04
2019-02-14T06:23:03.813Z,47.05
2019-02-14T06:23:35.012Z,47.13
2019-02-14T06:24:06.240Z,46.48
2019-02-14T06:24:37.441Z,46.71
2019-02-14T06:25:08.686Z,46.49
2019-02-14T06:25:42.295Z,46.61
2019-02-14T06:26:14.664Z,46.82
2019-02-14T06:26:45.883Z,48.60
2019-02-14T06:27:17.111Z,46.74
2019-02-14T06:27:48.309Z,47.65
2019-02-14T06:28:19.602Z,47.96
2019-02-14T06:28:50.841Z,46.25
2019-02-14T06:29:22.047Z,46.42
2019-02-14T06:29:53.273Z,46.30
2019-02-14T06:30:24.527Z,46.37
2019-02-14T06:30:55.722Z,45.92
2019-02-14T06:31:26.943Z,46.20
2019-02-14T06:31:58.186Z,46.60
2019-02-14T06:32:29.426Z,47.12
2019-02-14T06:33:00.677Z,47.53
2019-02-14T06:33:32.821Z,46.44
2019-02-14T06:34:04.057Z,46.18
2019-02-14T06:34:35.284Z,46.44
2019-02-14T06:35:06.500Z,46.05
2019-02-14T06:35:37.708Z,46.55
2019-02-14T06:36:08.938Z,45.93
2019-02-14T06:36:40.168Z,45.51
2019-02-14T06:37:13.418Z,45.67
2019-02-14T06:37:44.299Z,45.83
2019-02-14T06:38:15.852Z,45.72
2019-02-14T06:38:47.072Z,45.92
2019-02-14T06:39:18.267Z,45.82
2019-02-14T06:39:49.501Z,45.91
2019-02-14T06:40:20.709Z,46.02
2019-02-14T06:40:51.931Z,45.69
2019-02-14T06:41:23.184Z,45.39
2019-02-14T06:41:54.407Z,45.58
2019-02-14T06:42:25.622Z,45.65
2019-02-14T06:42:56.872Z,45.82
2019-02-14T06:43:28.128Z,47.79
2019-02-14T06:43:59.326Z,45.96
2019-02-14T06:44:30.532Z,46.31
2019-02-14T06:45:01.753Z,45.53
2019-02-14T06:45:32.956Z,44.85
2019-02-14T06:46:04.168Z,46.02